sensor_id;sensor_type;location;lat;lon;timestamp;P1;durP1;ratioP1;P2;durP2;ratioP2
66425;SDS011;53237;46.158;14.604;2023-02-13T00:02:08;29.88;;;23.88;;
66425;SDS011;53237;46.158;14.604;2023-02-13T00:04:34;35.47;;;24.65;;
66425;SDS011;53237;46.158;14.604;2023-02-13T00:07:00;29.40;;;22.38;;
66425;SDS011;53237;46.158;14.604;2023-02-13T00:09:27;28.90;;;22.15;;
66425;SDS011;53237;46.158;14.604;2023-02-13T00:11:53;27.85;;;21.55;;
66425;SDS011;53237;46.158;14.604;2023-02-13T00:14:19;29.08;;;21.48;;
66425;SDS011;53237;46.158;14.604;2023-02-13T00:16:45;29.90;;;22.55;;
66425;SDS011;53237;46.158;14.604;2023-02-13T00:19:11;29.45;;;21.38;;
66425;SDS011;53237;46.158;14.604;2023-02-13T00:21:37;31.42;;;22.88;;
66425;SDS011;53237;46.158;14.604;2023-02-13T00:24:03;27.98;;;21.98;;
66425;SDS011;53237;46.158;14.604;2023-02-13T00:26:30;34.38;;;23.27;;
66425;SDS011;53237;46.158;14.604;2023-02-13T00:28:56;29.23;;;21.05;;
66425;SDS011;53237;46.158;14.604;2023-02-13T00:31:22;27.52;;;21.33;;
66425;SDS011;53237;46.158;14.604;2023-02-13T00:33:48;27.40;;;21.25;;
66425;SDS011;53237;46.158;14.604;2023-02-13T00:38:40;37.20;;;24.30;;
66425;SDS011;53237;46.158;14.604;2023-02-13T00:41:07;30.85;;;23.02;;
66425;SDS011;53237;46.158;14.604;2023-02-13T00:43:33;33.90;;;24.65;;
66425;SDS011;53237;46.158;14.604;2023-02-13T00:45:59;30.52;;;22.88;;
66425;SDS011;53237;46.158;14.604;2023-02-13T00:48:26;28.77;;;22.25;;
66425;SDS011;53237;46.158;14.604;2023-02-13T00:50:52;26.75;;;21.60;;
66425;SDS011;53237;46.158;14.604;2023-02-13T00:53:22;28.33;;;21.65;;
66425;SDS011;53237;46.158;14.604;2023-02-13T00:55:48;27.92;;;21.02;;
66425;SDS011;53237;46.158;14.604;2023-02-13T00:58:15;29.45;;;21.88;;
66425;SDS011;53237;46.158;14.604;2023-02-13T01:00:41;29.00;;;20.88;;
66425;SDS011;53237;46.158;14.604;2023-02-13T01:03:07;32.95;;;22.83;;
66425;SDS011;53237;46.158;14.604;2023-02-13T01:05:33;31.45;;;21.70;;
66425;SDS011;53237;46.158;14.604;2023-02-13T01:07:59;29.45;;;21.58;;
66425;SDS011;53237;46.158;14.604;2023-02-13T01:10:25;27.02;;;21.20;;
66425;SDS011;53237;46.158;14.604;2023-02-13T01:12:52;27.23;;;21.17;;
66425;SDS011;53237;46.158;14.604;2023-02-13T01:15:18;26.33;;;19.90;;
66425;SDS011;53237;46.158;14.604;2023-02-13T01:17:44;26.50;;;21.20;;
66425;SDS011;53237;46.158;14.604;2023-02-13T01:20:11;27.27;;;21.30;;
66425;SDS011;53237;46.158;14.604;2023-02-13T01:22:37;25.13;;;19.65;;
66425;SDS011;53237;46.158;14.604;2023-02-13T01:25:04;26.38;;;20.13;;
66425;SDS011;53237;46.158;14.604;2023-02-13T01:27:30;28.30;;;20.73;;
66425;SDS011;53237;46.158;14.604;2023-02-13T01:29:56;26.67;;;19.88;;
66425;SDS011;53237;46.158;14.604;2023-02-13T01:32:22;24.75;;;19.20;;
66425;SDS011;53237;46.158;14.604;2023-02-13T01:34:48;29.85;;;20.33;;
66425;SDS011;53237;46.158;14.604;2023-02-13T01:37:14;23.20;;;18.25;;
66425;SDS011;53237;46.158;14.604;2023-02-13T01:39:40;24.80;;;19.58;;
66425;SDS011;53237;46.158;14.604;2023-02-13T01:42:25;28.40;;;20.50;;
66425;SDS011;53237;46.158;14.604;2023-02-13T01:44:55;31.75;;;20.98;;
66425;SDS011;53237;46.158;14.604;2023-02-13T01:47:26;28.67;;;20.92;;
66425;SDS011;53237;46.158;14.604;2023-02-13T01:50:02;27.50;;;20.63;;
66425;SDS011;53237;46.158;14.604;2023-02-13T01:52:29;26.67;;;20.08;;
66425;SDS011;53237;46.158;14.604;2023-02-13T01:54:55;23.95;;;18.42;;
66425;SDS011;53237;46.158;14.604;2023-02-13T01:57:21;27.75;;;21.33;;
66425;SDS011;53237;46.158;14.604;2023-02-13T02:00:00;26.75;;;19.73;;
66425;SDS011;53237;46.158;14.604;2023-02-13T02:02:28;26.63;;;20.55;;
66425;SDS011;53237;46.158;14.604;2023-02-13T02:04:55;27.15;;;19.15;;
66425;SDS011;53237;46.158;14.604;2023-02-13T02:07:25;28.40;;;22.33;;
66425;SDS011;53237;46.158;14.604;2023-02-13T02:09:53;22.50;;;17.15;;
66425;SDS011;53237;46.158;14.604;2023-02-13T02:12:35;23.15;;;18.50;;
66425;SDS011;53237;46.158;14.604;2023-02-13T02:15:03;23.67;;;18.88;;
66425;SDS011;53237;46.158;14.604;2023-02-13T02:17:30;26.02;;;19.35;;
66425;SDS011;53237;46.158;14.604;2023-02-13T02:25:12;25.30;;;20.27;;
66425;SDS011;53237;46.158;14.604;2023-02-13T02:27:49;25.48;;;18.70;;
66425;SDS011;53237;46.158;14.604;2023-02-13T02:32:53;24.23;;;17.63;;
66425;SDS011;53237;46.158;14.604;2023-02-13T02:37:55;22.60;;;16.67;;
66425;SDS011;53237;46.158;14.604;2023-02-13T02:40:29;21.63;;;17.20;;
66425;SDS011;53237;46.158;14.604;2023-02-13T02:51:32;18.67;;;15.60;;
66425;SDS011;53237;46.158;14.604;2023-02-13T02:56:48;19.52;;;15.23;;
66425;SDS011;53237;46.158;14.604;2023-02-13T02:59:15;20.92;;;15.88;;
66425;SDS011;53237;46.158;14.604;2023-02-13T03:02:02;18.73;;;14.77;;
66425;SDS011;53237;46.158;14.604;2023-02-13T03:04:49;18.15;;;14.98;;
66425;SDS011;53237;46.158;14.604;2023-02-13T03:07:34;18.60;;;15.00;;
66425;SDS011;53237;46.158;14.604;2023-02-13T03:10:03;19.05;;;14.43;;
66425;SDS011;53237;46.158;14.604;2023-02-13T03:15:33;18.40;;;14.30;;
66425;SDS011;53237;46.158;14.604;2023-02-13T03:18:00;16.50;;;13.15;;
66425;SDS011;53237;46.158;14.604;2023-02-13T03:20:45;18.13;;;13.93;;
66425;SDS011;53237;46.158;14.604;2023-02-13T03:23:45;16.35;;;12.93;;
66425;SDS011;53237;46.158;14.604;2023-02-13T03:26:36;15.93;;;12.68;;
66425;SDS011;53237;46.158;14.604;2023-02-13T03:34:34;14.80;;;12.55;;
66425;SDS011;53237;46.158;14.604;2023-02-13T03:37:26;15.60;;;12.77;;
66425;SDS011;53237;46.158;14.604;2023-02-13T03:40:14;16.10;;;13.88;;
66425;SDS011;53237;46.158;14.604;2023-02-13T03:42:44;15.60;;;12.98;;
66425;SDS011;53237;46.158;14.604;2023-02-13T03:45:15;14.50;;;12.50;;
66425;SDS011;53237;46.158;14.604;2023-02-13T03:48:02;17.00;;;13.90;;
66425;SDS011;53237;46.158;14.604;2023-02-13T03:50:33;16.60;;;13.43;;
66425;SDS011;53237;46.158;14.604;2023-02-13T03:53:05;17.75;;;13.90;;
66425;SDS011;53237;46.158;14.604;2023-02-13T03:55:34;15.57;;;13.45;;
66425;SDS011;53237;46.158;14.604;2023-02-13T03:58:27;17.23;;;13.57;;
66425;SDS011;53237;46.158;14.604;2023-02-13T04:01:14;16.15;;;13.38;;
66425;SDS011;53237;46.158;14.604;2023-02-13T04:03:43;16.70;;;13.73;;
66425;SDS011;53237;46.158;14.604;2023-02-13T04:06:12;17.08;;;13.77;;
66425;SDS011;53237;46.158;14.604;2023-02-13T04:08:38;18.10;;;14.20;;
66425;SDS011;53237;46.158;14.604;2023-02-13T04:13:33;16.83;;;14.13;;
66425;SDS011;53237;46.158;14.604;2023-02-13T04:16:02;18.00;;;13.90;;
66425;SDS011;53237;46.158;14.604;2023-02-13T04:18:31;17.63;;;13.82;;
66425;SDS011;53237;46.158;14.604;2023-02-13T04:21:02;15.82;;;13.55;;
66425;SDS011;53237;46.158;14.604;2023-02-13T04:23:29;18.40;;;14.10;;
66425;SDS011;53237;46.158;14.604;2023-02-13T04:25:55;18.35;;;13.95;;
66425;SDS011;53237;46.158;14.604;2023-02-13T04:28:21;17.75;;;14.05;;
66425;SDS011;53237;46.158;14.604;2023-02-13T04:30:47;17.35;;;14.32;;
66425;SDS011;53237;46.158;14.604;2023-02-13T04:33:16;15.38;;;13.52;;
66425;SDS011;53237;46.158;14.604;2023-02-13T04:35:42;17.67;;;13.77;;
66425;SDS011;53237;46.158;14.604;2023-02-13T04:38:08;16.20;;;13.63;;
66425;SDS011;53237;46.158;14.604;2023-02-13T04:40:34;16.48;;;13.55;;
66425;SDS011;53237;46.158;14.604;2023-02-13T04:43:00;16.90;;;13.75;;
66425;SDS011;53237;46.158;14.604;2023-02-13T04:45:26;17.45;;;14.23;;
66425;SDS011;53237;46.158;14.604;2023-02-13T04:47:53;16.67;;;14.18;;
66425;SDS011;53237;46.158;14.604;2023-02-13T04:50:19;17.35;;;13.82;;
66425;SDS011;53237;46.158;14.604;2023-02-13T04:52:45;17.45;;;14.25;;
66425;SDS011;53237;46.158;14.604;2023-02-13T04:55:12;18.27;;;15.23;;
66425;SDS011;53237;46.158;14.604;2023-02-13T04:57:38;17.55;;;14.55;;
66425;SDS011;53237;46.158;14.604;2023-02-13T05:00:04;19.27;;;14.63;;
66425;SDS011;53237;46.158;14.604;2023-02-13T05:02:31;17.63;;;14.60;;
66425;SDS011;53237;46.158;14.604;2023-02-13T05:04:57;19.13;;;15.05;;
66425;SDS011;53237;46.158;14.604;2023-02-13T05:07:23;19.52;;;15.18;;
66425;SDS011;53237;46.158;14.604;2023-02-13T05:09:49;22.30;;;15.93;;
66425;SDS011;53237;46.158;14.604;2023-02-13T05:12:15;21.58;;;16.70;;
66425;SDS011;53237;46.158;14.604;2023-02-13T05:14:41;22.80;;;16.60;;
66425;SDS011;53237;46.158;14.604;2023-02-13T05:17:07;21.65;;;17.80;;
66425;SDS011;53237;46.158;14.604;2023-02-13T05:19:33;20.80;;;16.40;;
66425;SDS011;53237;46.158;14.604;2023-02-13T05:21:59;20.40;;;16.45;;
66425;SDS011;53237;46.158;14.604;2023-02-13T05:24:44;21.98;;;17.13;;
66425;SDS011;53237;46.158;14.604;2023-02-13T05:27:10;23.35;;;17.75;;
66425;SDS011;53237;46.158;14.604;2023-02-13T05:29:36;24.60;;;18.33;;
66425;SDS011;53237;46.158;14.604;2023-02-13T05:32:02;22.77;;;17.88;;
66425;SDS011;53237;46.158;14.604;2023-02-13T05:34:28;24.27;;;17.58;;
66425;SDS011;53237;46.158;14.604;2023-02-13T05:36:54;21.38;;;17.25;;
66425;SDS011;53237;46.158;14.604;2023-02-13T05:39:20;23.38;;;18.20;;
66425;SDS011;53237;46.158;14.604;2023-02-13T05:41:46;22.10;;;17.73;;
66425;SDS011;53237;46.158;14.604;2023-02-13T05:44:13;25.45;;;17.90;;
66425;SDS011;53237;46.158;14.604;2023-02-13T05:46:40;21.83;;;17.40;;
66425;SDS011;53237;46.158;14.604;2023-02-13T05:49:07;22.10;;;17.05;;
66425;SDS011;53237;46.158;14.604;2023-02-13T05:51:33;23.88;;;18.15;;
66425;SDS011;53237;46.158;14.604;2023-02-13T05:53:59;22.92;;;17.63;;
66425;SDS011;53237;46.158;14.604;2023-02-13T05:56:26;24.08;;;17.70;;
66425;SDS011;53237;46.158;14.604;2023-02-13T05:58:55;21.83;;;17.08;;
66425;SDS011;53237;46.158;14.604;2023-02-13T06:01:21;23.98;;;17.40;;
66425;SDS011;53237;46.158;14.604;2023-02-13T06:03:48;22.80;;;16.85;;
66425;SDS011;53237;46.158;14.604;2023-02-13T06:06:14;22.00;;;16.95;;
66425;SDS011;53237;46.158;14.604;2023-02-13T06:08:41;20.63;;;16.67;;
66425;SDS011;53237;46.158;14.604;2023-02-13T06:11:08;23.00;;;16.85;;
66425;SDS011;53237;46.158;14.604;2023-02-13T06:13:34;23.42;;;17.58;;
66425;SDS011;53237;46.158;14.604;2023-02-13T06:16:03;22.02;;;17.25;;
66425;SDS011;53237;46.158;14.604;2023-02-13T06:18:29;24.48;;;17.58;;
66425;SDS011;53237;46.158;14.604;2023-02-13T06:20:55;20.42;;;16.00;;
66425;SDS011;53237;46.158;14.604;2023-02-13T06:23:21;21.40;;;16.30;;
66425;SDS011;53237;46.158;14.604;2023-02-13T06:25:47;22.90;;;16.58;;
66425;SDS011;53237;46.158;14.604;2023-02-13T06:28:13;23.38;;;16.98;;
66425;SDS011;53237;46.158;14.604;2023-02-13T06:30:39;22.98;;;17.35;;
66425;SDS011;53237;46.158;14.604;2023-02-13T06:33:05;21.05;;;16.73;;
66425;SDS011;53237;46.158;14.604;2023-02-13T06:35:31;26.73;;;20.52;;
66425;SDS011;53237;46.158;14.604;2023-02-13T06:37:57;22.05;;;16.17;;
66425;SDS011;53237;46.158;14.604;2023-02-13T06:40:23;22.63;;;17.50;;
66425;SDS011;53237;46.158;14.604;2023-02-13T06:42:49;20.98;;;16.95;;
66425;SDS011;53237;46.158;14.604;2023-02-13T06:45:15;21.27;;;15.82;;
66425;SDS011;53237;46.158;14.604;2023-02-13T06:47:42;21.60;;;16.20;;
66425;SDS011;53237;46.158;14.604;2023-02-13T06:50:08;20.50;;;15.98;;
66425;SDS011;53237;46.158;14.604;2023-02-13T06:52:34;21.38;;;16.55;;
66425;SDS011;53237;46.158;14.604;2023-02-13T06:55:00;19.75;;;15.27;;
66425;SDS011;53237;46.158;14.604;2023-02-13T06:57:26;22.75;;;16.08;;
66425;SDS011;53237;46.158;14.604;2023-02-13T06:59:57;22.88;;;17.42;;
66425;SDS011;53237;46.158;14.604;2023-02-13T07:02:23;22.27;;;16.80;;
66425;SDS011;53237;46.158;14.604;2023-02-13T07:04:48;22.48;;;16.35;;
66425;SDS011;53237;46.158;14.604;2023-02-13T07:07:14;20.77;;;16.08;;
66425;SDS011;53237;46.158;14.604;2023-02-13T07:09:40;22.20;;;16.63;;
66425;SDS011;53237;46.158;14.604;2023-02-13T07:12:07;21.33;;;17.35;;
66425;SDS011;53237;46.158;14.604;2023-02-13T07:14:33;22.63;;;18.48;;
66425;SDS011;53237;46.158;14.604;2023-02-13T07:16:58;23.23;;;18.00;;
66425;SDS011;53237;46.158;14.604;2023-02-13T07:19:24;22.67;;;17.98;;
66425;SDS011;53237;46.158;14.604;2023-02-13T07:21:51;24.15;;;19.70;;
66425;SDS011;53237;46.158;14.604;2023-02-13T07:24:17;23.67;;;19.27;;
66425;SDS011;53237;46.158;14.604;2023-02-13T07:26:43;22.92;;;18.38;;
66425;SDS011;53237;46.158;14.604;2023-02-13T07:29:09;25.20;;;20.30;;
66425;SDS011;53237;46.158;14.604;2023-02-13T07:31:35;23.90;;;19.70;;
66425;SDS011;53237;46.158;14.604;2023-02-13T07:34:01;33.17;;;28.17;;
66425;SDS011;53237;46.158;14.604;2023-02-13T07:36:27;26.48;;;21.33;;
66425;SDS011;53237;46.158;14.604;2023-02-13T07:38:53;24.88;;;19.98;;
66425;SDS011;53237;46.158;14.604;2023-02-13T07:41:19;26.50;;;21.00;;
66425;SDS011;53237;46.158;14.604;2023-02-13T07:43:45;26.60;;;21.30;;
66425;SDS011;53237;46.158;14.604;2023-02-13T07:46:11;26.85;;;21.85;;
66425;SDS011;53237;46.158;14.604;2023-02-13T07:48:37;27.23;;;22.88;;
66425;SDS011;53237;46.158;14.604;2023-02-13T07:51:04;28.73;;;23.38;;
66425;SDS011;53237;46.158;14.604;2023-02-13T07:53:30;27.40;;;23.83;;
66425;SDS011;53237;46.158;14.604;2023-02-13T07:55:56;28.58;;;23.95;;
66425;SDS011;53237;46.158;14.604;2023-02-13T07:58:22;41.63;;;33.80;;
66425;SDS011;53237;46.158;14.604;2023-02-13T08:00:48;29.55;;;23.90;;
66425;SDS011;53237;46.158;14.604;2023-02-13T08:03:15;29.77;;;25.27;;
66425;SDS011;53237;46.158;14.604;2023-02-13T08:05:41;40.53;;;31.90;;
66425;SDS011;53237;46.158;14.604;2023-02-13T08:08:07;40.60;;;33.72;;
66425;SDS011;53237;46.158;14.604;2023-02-13T08:10:33;39.70;;;33.65;;
66425;SDS011;53237;46.158;14.604;2023-02-13T08:13:18;31.90;;;27.55;;
66425;SDS011;53237;46.158;14.604;2023-02-13T08:15:44;32.58;;;26.13;;
66425;SDS011;53237;46.158;14.604;2023-02-13T08:18:11;38.28;;;30.48;;
66425;SDS011;53237;46.158;14.604;2023-02-13T08:20:37;29.67;;;24.50;;
66425;SDS011;53237;46.158;14.604;2023-02-13T08:23:08;52.03;;;39.17;;
66425;SDS011;53237;46.158;14.604;2023-02-13T08:25:34;39.13;;;31.63;;
66425;SDS011;53237;46.158;14.604;2023-02-13T08:28:02;32.75;;;27.08;;
66425;SDS011;53237;46.158;14.604;2023-02-13T08:30:28;28.63;;;23.40;;
66425;SDS011;53237;46.158;14.604;2023-02-13T08:32:54;31.92;;;23.67;;
66425;SDS011;53237;46.158;14.604;2023-02-13T08:35:21;32.70;;;24.55;;
66425;SDS011;53237;46.158;14.604;2023-02-13T08:37:50;30.40;;;23.83;;
66425;SDS011;53237;46.158;14.604;2023-02-13T08:40:16;29.98;;;24.20;;
66425;SDS011;53237;46.158;14.604;2023-02-13T08:42:42;30.23;;;23.50;;
66425;SDS011;53237;46.158;14.604;2023-02-13T08:45:08;29.75;;;23.30;;
66425;SDS011;53237;46.158;14.604;2023-02-13T08:47:35;29.90;;;23.73;;
66425;SDS011;53237;46.158;14.604;2023-02-13T08:50:02;28.13;;;22.13;;
66425;SDS011;53237;46.158;14.604;2023-02-13T08:52:28;29.10;;;21.48;;
66425;SDS011;53237;46.158;14.604;2023-02-13T08:54:54;29.05;;;22.88;;
66425;SDS011;53237;46.158;14.604;2023-02-13T08:57:20;26.77;;;20.08;;
66425;SDS011;53237;46.158;14.604;2023-02-13T08:59:46;26.30;;;20.83;;
66425;SDS011;53237;46.158;14.604;2023-02-13T09:02:12;24.83;;;20.00;;
66425;SDS011;53237;46.158;14.604;2023-02-13T09:04:39;26.85;;;22.05;;
66425;SDS011;53237;46.158;14.604;2023-02-13T09:07:05;28.85;;;22.25;;
66425;SDS011;53237;46.158;14.604;2023-02-13T09:09:31;26.00;;;19.58;;
66425;SDS011;53237;46.158;14.604;2023-02-13T09:11:57;29.45;;;22.15;;
66425;SDS011;53237;46.158;14.604;2023-02-13T09:14:24;28.35;;;21.20;;
66425;SDS011;53237;46.158;14.604;2023-02-13T09:16:51;30.17;;;24.05;;
66425;SDS011;53237;46.158;14.604;2023-02-13T09:19:17;30.88;;;23.40;;
66425;SDS011;53237;46.158;14.604;2023-02-13T09:21:43;35.97;;;28.42;;
66425;SDS011;53237;46.158;14.604;2023-02-13T09:24:09;36.53;;;26.25;;
66425;SDS011;53237;46.158;14.604;2023-02-13T09:26:35;28.42;;;22.75;;
66425;SDS011;53237;46.158;14.604;2023-02-13T09:29:01;30.17;;;24.48;;
66425;SDS011;53237;46.158;14.604;2023-02-13T09:31:27;25.08;;;19.58;;
66425;SDS011;53237;46.158;14.604;2023-02-13T09:33:53;24.40;;;19.60;;
66425;SDS011;53237;46.158;14.604;2023-02-13T09:36:20;26.08;;;20.55;;
66425;SDS011;53237;46.158;14.604;2023-02-13T09:38:50;25.88;;;20.08;;
66425;SDS011;53237;46.158;14.604;2023-02-13T09:46:18;28.67;;;22.27;;
66425;SDS011;53237;46.158;14.604;2023-02-13T09:48:47;46.80;;;18.95;;
66425;SDS011;53237;46.158;14.604;2023-02-13T09:51:15;22.83;;;18.25;;
66425;SDS011;53237;46.158;14.604;2023-02-13T09:53:43;23.48;;;17.27;;
66425;SDS011;53237;46.158;14.604;2023-02-13T09:56:20;25.17;;;19.05;;
66425;SDS011;53237;46.158;14.604;2023-02-13T09:58:47;21.00;;;15.35;;
66425;SDS011;53237;46.158;14.604;2023-02-13T10:01:16;26.77;;;20.10;;
66425;SDS011;53237;46.158;14.604;2023-02-13T10:06:29;20.67;;;14.80;;
66425;SDS011;53237;46.158;14.604;2023-02-13T10:14:14;19.30;;;14.80;;
66425;SDS011;53237;46.158;14.604;2023-02-13T10:16:46;18.02;;;13.95;;
66425;SDS011;53237;46.158;14.604;2023-02-13T10:19:26;15.88;;;13.25;;
66425;SDS011;53237;46.158;14.604;2023-02-13T10:21:55;14.97;;;13.37;;
66425;SDS011;53237;46.158;14.604;2023-02-13T10:27:03;16.90;;;14.02;;
66425;SDS011;53237;46.158;14.604;2023-02-13T10:29:38;18.58;;;14.57;;
66425;SDS011;53237;46.158;14.604;2023-02-13T10:32:29;16.42;;;14.07;;
66425;SDS011;53237;46.158;14.604;2023-02-13T10:34:56;20.92;;;14.98;;
66425;SDS011;53237;46.158;14.604;2023-02-13T10:37:23;16.55;;;12.70;;
66425;SDS011;53237;46.158;14.604;2023-02-13T10:39:50;14.57;;;12.15;;
66425;SDS011;53237;46.158;14.604;2023-02-13T10:42:22;16.88;;;12.45;;
66425;SDS011;53237;46.158;14.604;2023-02-13T10:45:09;15.23;;;11.38;;
66425;SDS011;53237;46.158;14.604;2023-02-13T10:50:29;17.88;;;12.52;;
66425;SDS011;53237;46.158;14.604;2023-02-13T10:53:03;19.52;;;14.60;;
66425;SDS011;53237;46.158;14.604;2023-02-13T10:58:17;14.45;;;11.65;;
66425;SDS011;53237;46.158;14.604;2023-02-13T11:03:18;14.60;;;11.32;;
66425;SDS011;53237;46.158;14.604;2023-02-13T11:05:44;14.43;;;11.23;;
66425;SDS011;53237;46.158;14.604;2023-02-13T11:08:15;13.20;;;10.02;;
66425;SDS011;53237;46.158;14.604;2023-02-13T11:10:42;12.73;;;10.95;;
66425;SDS011;53237;46.158;14.604;2023-02-13T11:13:15;14.98;;;10.73;;
66425;SDS011;53237;46.158;14.604;2023-02-13T11:15:42;26.05;;;17.83;;
66425;SDS011;53237;46.158;14.604;2023-02-13T11:18:20;15.15;;;10.55;;
66425;SDS011;53237;46.158;14.604;2023-02-13T11:20:46;13.98;;;9.85;;
66425;SDS011;53237;46.158;14.604;2023-02-13T11:25:54;11.20;;;8.65;;
66425;SDS011;53237;46.158;14.604;2023-02-13T11:30:47;9.98;;;7.18;;
66425;SDS011;53237;46.158;14.604;2023-02-13T11:35:42;7.93;;;6.22;;
66425;SDS011;53237;46.158;14.604;2023-02-13T11:40:35;8.75;;;6.55;;
66425;SDS011;53237;46.158;14.604;2023-02-13T11:43:01;8.82;;;5.88;;
66425;SDS011;53237;46.158;14.604;2023-02-13T11:45:27;6.50;;;5.50;;
66425;SDS011;53237;46.158;14.604;2023-02-13T11:47:53;6.15;;;5.45;;
66425;SDS011;53237;46.158;14.604;2023-02-13T11:50:22;7.00;;;4.72;;
66425;SDS011;53237;46.158;14.604;2023-02-13T11:52:53;8.98;;;5.45;;
66425;SDS011;53237;46.158;14.604;2023-02-13T11:55:28;6.25;;;4.90;;
66425;SDS011;53237;46.158;14.604;2023-02-13T11:57:58;6.22;;;4.80;;
66425;SDS011;53237;46.158;14.604;2023-02-13T12:00:26;6.15;;;4.65;;
66425;SDS011;53237;46.158;14.604;2023-02-13T12:02:54;5.60;;;4.35;;
66425;SDS011;53237;46.158;14.604;2023-02-13T12:05:24;7.63;;;4.18;;
66425;SDS011;53237;46.158;14.604;2023-02-13T12:07:51;5.82;;;3.97;;
66425;SDS011;53237;46.158;14.604;2023-02-13T12:10:23;4.68;;;3.85;;
66425;SDS011;53237;46.158;14.604;2023-02-13T12:12:53;5.18;;;4.63;;
66425;SDS011;53237;46.158;14.604;2023-02-13T12:15:21;6.32;;;5.22;;
66425;SDS011;53237;46.158;14.604;2023-02-13T12:17:50;8.25;;;5.88;;
66425;SDS011;53237;46.158;14.604;2023-02-13T12:20:18;9.93;;;5.13;;
66425;SDS011;53237;46.158;14.604;2023-02-13T12:23:06;7.47;;;5.82;;
66425;SDS011;53237;46.158;14.604;2023-02-13T12:25:36;6.57;;;5.22;;
66425;SDS011;53237;46.158;14.604;2023-02-13T12:28:15;5.38;;;4.35;;
66425;SDS011;53237;46.158;14.604;2023-02-13T12:30:49;5.43;;;4.78;;
66425;SDS011;53237;46.158;14.604;2023-02-13T12:33:21;7.70;;;6.90;;
66425;SDS011;53237;46.158;14.604;2023-02-13T12:38:23;5.35;;;4.30;;
66425;SDS011;53237;46.158;14.604;2023-02-13T12:41:11;11.77;;;6.70;;
66425;SDS011;53237;46.158;14.604;2023-02-13T12:49:10;8.00;;;5.40;;
66425;SDS011;53237;46.158;14.604;2023-02-13T13:05:29;9.15;;;7.03;;
66425;SDS011;53237;46.158;14.604;2023-02-13T13:08:12;6.35;;;5.50;;
66425;SDS011;53237;46.158;14.604;2023-02-13T13:10:46;10.70;;;6.68;;
66425;SDS011;53237;46.158;14.604;2023-02-13T13:16:08;6.63;;;5.20;;
66425;SDS011;53237;46.158;14.604;2023-02-13T13:21:40;9.82;;;6.07;;
66425;SDS011;53237;46.158;14.604;2023-02-13T13:24:13;11.50;;;8.43;;
66425;SDS011;53237;46.158;14.604;2023-02-13T13:26:46;10.00;;;7.68;;
66425;SDS011;53237;46.158;14.604;2023-02-13T13:29:23;8.00;;;6.95;;
66425;SDS011;53237;46.158;14.604;2023-02-13T13:32:13;10.20;;;6.72;;
66425;SDS011;53237;46.158;14.604;2023-02-13T13:34:36;11.10;;;7.53;;
66425;SDS011;53237;46.158;14.604;2023-02-13T13:37:12;8.20;;;5.95;;
66425;SDS011;53237;46.158;14.604;2023-02-13T13:44:53;6.85;;;5.75;;
66425;SDS011;53237;46.158;14.604;2023-02-13T13:48:05;11.27;;;7.78;;
66425;SDS011;53237;46.158;14.604;2023-02-13T13:50:16;8.20;;;6.88;;
66425;SDS011;53237;46.158;14.604;2023-02-13T13:53:03;9.40;;;6.82;;
66425;SDS011;53237;46.158;14.604;2023-02-13T14:03:37;7.90;;;7.00;;
66425;SDS011;53237;46.158;14.604;2023-02-13T14:06:07;11.80;;;7.68;;
66425;SDS011;53237;46.158;14.604;2023-02-13T14:13:36;7.97;;;7.10;;
66425;SDS011;53237;46.158;14.604;2023-02-13T14:16:04;8.50;;;7.38;;
66425;SDS011;53237;46.158;14.604;2023-02-13T14:18:30;9.20;;;6.50;;
66425;SDS011;53237;46.158;14.604;2023-02-13T14:20:58;10.13;;;6.75;;
66425;SDS011;53237;46.158;14.604;2023-02-13T14:26:09;14.20;;;9.85;;
66425;SDS011;53237;46.158;14.604;2023-02-13T14:28:36;9.65;;;8.10;;
66425;SDS011;53237;46.158;14.604;2023-02-13T14:31:03;9.25;;;7.22;;
66425;SDS011;53237;46.158;14.604;2023-02-13T14:33:30;9.63;;;7.18;;
66425;SDS011;53237;46.158;14.604;2023-02-13T14:36:06;8.95;;;6.72;;
66425;SDS011;53237;46.158;14.604;2023-02-13T14:38:33;8.65;;;6.82;;
66425;SDS011;53237;46.158;14.604;2023-02-13T14:41:00;9.95;;;7.50;;
66425;SDS011;53237;46.158;14.604;2023-02-13T14:43:37;10.73;;;8.15;;
66425;SDS011;53237;46.158;14.604;2023-02-13T14:48:39;9.82;;;8.13;;
66425;SDS011;53237;46.158;14.604;2023-02-13T14:51:06;10.52;;;7.85;;
66425;SDS011;53237;46.158;14.604;2023-02-13T14:53:48;8.82;;;7.45;;
66425;SDS011;53237;46.158;14.604;2023-02-13T14:56:17;11.85;;;8.43;;
66425;SDS011;53237;46.158;14.604;2023-02-13T14:58:51;9.55;;;7.07;;
66425;SDS011;53237;46.158;14.604;2023-02-13T15:01:31;10.77;;;7.28;;
66425;SDS011;53237;46.158;14.604;2023-02-13T15:06:44;10.05;;;7.97;;
66425;SDS011;53237;46.158;14.604;2023-02-13T15:09:31;10.30;;;7.80;;
66425;SDS011;53237;46.158;14.604;2023-02-13T15:11:59;10.63;;;7.97;;
66425;SDS011;53237;46.158;14.604;2023-02-13T15:14:32;9.30;;;7.95;;
66425;SDS011;53237;46.158;14.604;2023-02-13T15:17:14;8.93;;;7.65;;
66425;SDS011;53237;46.158;14.604;2023-02-13T15:19:43;8.20;;;7.32;;
66425;SDS011;53237;46.158;14.604;2023-02-13T15:22:16;7.93;;;7.20;;
66425;SDS011;53237;46.158;14.604;2023-02-13T15:24:46;8.15;;;6.65;;
66425;SDS011;53237;46.158;14.604;2023-02-13T15:27:18;8.60;;;6.63;;
66425;SDS011;53237;46.158;14.604;2023-02-13T15:30:00;11.15;;;8.35;;
66425;SDS011;53237;46.158;14.604;2023-02-13T15:32:34;10.35;;;7.93;;
66425;SDS011;53237;46.158;14.604;2023-02-13T15:35:01;7.00;;;5.90;;
66425;SDS011;53237;46.158;14.604;2023-02-13T15:37:29;13.20;;;9.85;;
66425;SDS011;53237;46.158;14.604;2023-02-13T15:40:11;11.98;;;8.75;;
66425;SDS011;53237;46.158;14.604;2023-02-13T15:42:38;10.18;;;7.90;;
66425;SDS011;53237;46.158;14.604;2023-02-13T15:45:04;9.48;;;7.45;;
66425;SDS011;53237;46.158;14.604;2023-02-13T15:47:30;8.98;;;6.38;;
66425;SDS011;53237;46.158;14.604;2023-02-13T15:49:58;8.23;;;6.75;;
66425;SDS011;53237;46.158;14.604;2023-02-13T15:52:30;11.82;;;9.00;;
66425;SDS011;53237;46.158;14.604;2023-02-13T15:54:57;10.65;;;7.82;;
66425;SDS011;53237;46.158;14.604;2023-02-13T15:57:23;9.50;;;6.90;;
66425;SDS011;53237;46.158;14.604;2023-02-13T15:59:51;10.68;;;8.88;;
66425;SDS011;53237;46.158;14.604;2023-02-13T16:02:19;11.15;;;7.20;;
66425;SDS011;53237;46.158;14.604;2023-02-13T16:04:46;10.95;;;8.93;;
66425;SDS011;53237;46.158;14.604;2023-02-13T16:07:12;13.85;;;9.63;;
66425;SDS011;53237;46.158;14.604;2023-02-13T16:09:39;9.45;;;7.50;;
66425;SDS011;53237;46.158;14.604;2023-02-13T16:12:06;12.25;;;9.55;;
66425;SDS011;53237;46.158;14.604;2023-02-13T16:15:03;9.50;;;7.18;;
66425;SDS011;53237;46.158;14.604;2023-02-13T16:17:29;7.75;;;6.22;;
66425;SDS011;53237;46.158;14.604;2023-02-13T16:19:58;11.20;;;8.85;;
66425;SDS011;53237;46.158;14.604;2023-02-13T16:22:27;18.45;;;13.80;;
66425;SDS011;53237;46.158;14.604;2023-02-13T16:24:54;20.13;;;14.50;;
66425;SDS011;53237;46.158;14.604;2023-02-13T16:27:25;19.85;;;13.73;;
66425;SDS011;53237;46.158;14.604;2023-02-13T16:30:03;11.80;;;8.13;;